aviador You're here:

YPPD Decoded Metar

PORT HEDLAND in AUSTRALIA
Report Time2017-08-20 13:00:00
UTC Time2017-08-20 13:40:34
Flight Rules vfr VFR
Wind220° at 06 kt
W.Decomp.*RWY 18: 4.7 kt HW 3.8 kt RCW
RWY 14: 1.1 kt HW 5.9 kt RCW
W.Rank220° ranks 31
Current wind is below 220° avg. (6.5)
Visibility9999 m
Phenomena:N/A
Clouds:N/A
Expected CloudBase > 2,000 ft AGL from Temp-Dew spread
CeilingNone
Temp21°C (ISA +6)
Dew Point16°C (73% RH)
AAT20.8°C
QNH1014 hPa
Density Alt932 ft
Elevation20 ft
Report Wrong Elevation
Raw Report
METAR YPPD 201300Z AUTO 22006KT 9999 // NCD 21/16 Q1014=

Extra information for YPPD:More info

Metar Taf Metar & Taf Last 4 Metars F.Rules Stats Wind Profile Meteogram Temp Stats Airport Information Weather charts Add Link Nearby VenuesMetar ALERT Operation Metar Decoded Social comments